sensor_id;sensor_type;location;lat;lon;timestamp;temperature;humidity
19307;DHT22;9788;48.194;16.318;2024-02-14T00:00:38;4.10;99.90
19307;DHT22;9788;48.194;16.318;2024-02-14T00:03:10;4.10;99.90
19307;DHT22;9788;48.194;16.318;2024-02-14T00:05:39;4.10;99.90
19307;DHT22;9788;48.194;16.318;2024-02-14T00:08:10;4.10;99.90
19307;DHT22;9788;48.194;16.318;2024-02-14T00:10:43;4.00;99.90
19307;DHT22;9788;48.194;16.318;2024-02-14T00:13:13;4.00;99.90
19307;DHT22;9788;48.194;16.318;2024-02-14T00:15:41;3.90;99.90
19307;DHT22;9788;48.194;16.318;2024-02-14T00:18:11;3.90;99.90
19307;DHT22;9788;48.194;16.318;2024-02-14T00:20:45;3.80;99.90
19307;DHT22;9788;48.194;16.318;2024-02-14T00:23:18;3.60;99.90
19307;DHT22;9788;48.194;16.318;2024-02-14T00:25:46;3.50;99.90
19307;DHT22;9788;48.194;16.318;2024-02-14T00:28:14;3.60;99.90
19307;DHT22;9788;48.194;16.318;2024-02-14T00:30:43;3.50;99.90
19307;DHT22;9788;48.194;16.318;2024-02-14T00:33:13;3.30;99.90
19307;DHT22;9788;48.194;16.318;2024-02-14T00:35:43;3.30;99.90
19307;DHT22;9788;48.194;16.318;2024-02-14T00:38:11;3.20;99.90
19307;DHT22;9788;48.194;16.318;2024-02-14T00:40:40;3.10;99.90
19307;DHT22;9788;48.194;16.318;2024-02-14T00:43:09;3.00;99.90
19307;DHT22;9788;48.194;16.318;2024-02-14T00:45:39;2.90;99.90
19307;DHT22;9788;48.194;16.318;2024-02-14T00:48:08;2.80;99.90
19307;DHT22;9788;48.194;16.318;2024-02-14T00:50:38;2.80;99.90
19307;DHT22;9788;48.194;16.318;2024-02-14T00:53:06;2.80;99.90
19307;DHT22;9788;48.194;16.318;2024-02-14T00:55:36;2.80;99.90
19307;DHT22;9788;48.194;16.318;2024-02-14T00:58:04;2.70;99.90
19307;DHT22;9788;48.194;16.318;2024-02-14T01:00:34;2.80;99.90
19307;DHT22;9788;48.194;16.318;2024-02-14T01:03:03;2.80;99.90
19307;DHT22;9788;48.194;16.318;2024-02-14T01:05:32;2.90;99.90
19307;DHT22;9788;48.194;16.318;2024-02-14T01:08:02;2.90;99.90
19307;DHT22;9788;48.194;16.318;2024-02-14T01:10:30;2.90;99.90
19307;DHT22;9788;48.194;16.318;2024-02-14T01:13:00;2.90;99.90
19307;DHT22;9788;48.194;16.318;2024-02-14T01:15:28;2.80;99.90
19307;DHT22;9788;48.194;16.318;2024-02-14T01:17:58;2.80;99.90
19307;DHT22;9788;48.194;16.318;2024-02-14T01:20:29;2.70;99.90
19307;DHT22;9788;48.194;16.318;2024-02-14T01:23:00;2.60;99.90
19307;DHT22;9788;48.194;16.318;2024-02-14T01:25:29;2.50;99.90
19307;DHT22;9788;48.194;16.318;2024-02-14T01:27:58;2.40;99.90
19307;DHT22;9788;48.194;16.318;2024-02-14T01:30:29;2.30;99.90
19307;DHT22;9788;48.194;16.318;2024-02-14T01:33:00;2.30;99.90
19307;DHT22;9788;48.194;16.318;2024-02-14T01:35:28;2.30;99.90
19307;DHT22;9788;48.194;16.318;2024-02-14T01:37:57;2.30;99.90
19307;DHT22;9788;48.194;16.318;2024-02-14T01:40:29;2.20;99.90
19307;DHT22;9788;48.194;16.318;2024-02-14T01:42:57;2.20;99.90
19307;DHT22;9788;48.194;16.318;2024-02-14T01:45:25;2.10;99.90
19307;DHT22;9788;48.194;16.318;2024-02-14T01:47:54;2.10;99.90
19307;DHT22;9788;48.194;16.318;2024-02-14T01:50:27;2.10;99.90
19307;DHT22;9788;48.194;16.318;2024-02-14T01:52:59;2.10;99.90
19307;DHT22;9788;48.194;16.318;2024-02-14T01:55:30;2.00;99.90
19307;DHT22;9788;48.194;16.318;2024-02-14T01:58:00;2.10;99.90
19307;DHT22;9788;48.194;16.318;2024-02-14T02:00:30;2.10;99.90
19307;DHT22;9788;48.194;16.318;2024-02-14T02:03:02;2.10;99.90
19307;DHT22;9788;48.194;16.318;2024-02-14T02:05:31;2.20;99.90
19307;DHT22;9788;48.194;16.318;2024-02-14T02:08:01;2.30;99.90
19307;DHT22;9788;48.194;16.318;2024-02-14T02:10:32;2.40;99.90
19307;DHT22;9788;48.194;16.318;2024-02-14T02:13:02;2.40;99.90
19307;DHT22;9788;48.194;16.318;2024-02-14T02:15:30;2.40;99.90
19307;DHT22;9788;48.194;16.318;2024-02-14T02:17:59;2.40;99.90
19307;DHT22;9788;48.194;16.318;2024-02-14T02:20:27;2.40;99.90
19307;DHT22;9788;48.194;16.318;2024-02-14T02:22:57;2.50;99.90
19307;DHT22;9788;48.194;16.318;2024-02-14T02:25:26;2.50;99.90
19307;DHT22;9788;48.194;16.318;2024-02-14T02:27:55;2.40;99.90
19307;DHT22;9788;48.194;16.318;2024-02-14T02:30:24;2.40;99.90
19307;DHT22;9788;48.194;16.318;2024-02-14T02:32:54;2.30;99.90
19307;DHT22;9788;48.194;16.318;2024-02-14T02:35:23;2.30;99.90
19307;DHT22;9788;48.194;16.318;2024-02-14T02:37:53;2.20;99.90
19307;DHT22;9788;48.194;16.318;2024-02-14T02:40:22;2.20;99.90
19307;DHT22;9788;48.194;16.318;2024-02-14T02:42:51;2.10;99.90
19307;DHT22;9788;48.194;16.318;2024-02-14T02:45:19;2.10;99.90
19307;DHT22;9788;48.194;16.318;2024-02-14T02:47:47;2.10;99.90
19307;DHT22;9788;48.194;16.318;2024-02-14T02:50:20;2.00;99.90
19307;DHT22;9788;48.194;16.318;2024-02-14T02:52:49;2.00;99.90
19307;DHT22;9788;48.194;16.318;2024-02-14T02:55:18;1.90;99.90
19307;DHT22;9788;48.194;16.318;2024-02-14T02:57:48;1.90;99.90
19307;DHT22;9788;48.194;16.318;2024-02-14T03:00:18;1.80;99.90
19307;DHT22;9788;48.194;16.318;2024-02-14T03:02:48;1.70;99.90
19307;DHT22;9788;48.194;16.318;2024-02-14T03:05:17;1.60;99.90
19307;DHT22;9788;48.194;16.318;2024-02-14T03:07:47;1.60;99.90
19307;DHT22;9788;48.194;16.318;2024-02-14T03:10:17;1.60;99.90
19307;DHT22;9788;48.194;16.318;2024-02-14T03:12:47;1.60;99.90
19307;DHT22;9788;48.194;16.318;2024-02-14T03:15:16;1.60;99.90
19307;DHT22;9788;48.194;16.318;2024-02-14T03:17:45;1.70;99.90
19307;DHT22;9788;48.194;16.318;2024-02-14T03:20:14;1.70;99.90
19307;DHT22;9788;48.194;16.318;2024-02-14T03:22:44;1.70;99.90
19307;DHT22;9788;48.194;16.318;2024-02-14T03:25:16;1.70;99.90
19307;DHT22;9788;48.194;16.318;2024-02-14T03:27:45;1.60;99.90
19307;DHT22;9788;48.194;16.318;2024-02-14T03:30:23;1.60;99.90
19307;DHT22;9788;48.194;16.318;2024-02-14T03:32:51;1.60;99.90
19307;DHT22;9788;48.194;16.318;2024-02-14T03:35:22;1.50;99.90
19307;DHT22;9788;48.194;16.318;2024-02-14T03:37:50;1.50;99.90
19307;DHT22;9788;48.194;16.318;2024-02-14T03:40:19;1.70;99.90
19307;DHT22;9788;48.194;16.318;2024-02-14T03:42:49;1.80;99.90
19307;DHT22;9788;48.194;16.318;2024-02-14T03:45:19;1.90;99.90
19307;DHT22;9788;48.194;16.318;2024-02-14T03:47:49;2.00;99.90
19307;DHT22;9788;48.194;16.318;2024-02-14T03:50:17;2.10;99.90
19307;DHT22;9788;48.194;16.318;2024-02-14T03:52:46;2.00;99.90
19307;DHT22;9788;48.194;16.318;2024-02-14T03:55:15;2.00;99.90
19307;DHT22;9788;48.194;16.318;2024-02-14T03:57:44;2.00;99.90
19307;DHT22;9788;48.194;16.318;2024-02-14T04:00:14;1.90;99.90
19307;DHT22;9788;48.194;16.318;2024-02-14T04:02:43;1.80;99.90
19307;DHT22;9788;48.194;16.318;2024-02-14T04:05:13;1.80;99.90
19307;DHT22;9788;48.194;16.318;2024-02-14T04:07:41;1.70;99.90
19307;DHT22;9788;48.194;16.318;2024-02-14T04:10:14;1.70;99.90
19307;DHT22;9788;48.194;16.318;2024-02-14T04:12:42;1.60;99.90
19307;DHT22;9788;48.194;16.318;2024-02-14T04:15:11;1.70;99.90
19307;DHT22;9788;48.194;16.318;2024-02-14T04:17:40;1.60;99.90
19307;DHT22;9788;48.194;16.318;2024-02-14T04:20:09;1.70;99.90
19307;DHT22;9788;48.194;16.318;2024-02-14T04:22:39;1.70;99.90
19307;DHT22;9788;48.194;16.318;2024-02-14T04:25:11;1.80;99.90
19307;DHT22;9788;48.194;16.318;2024-02-14T04:27:39;1.80;99.90
19307;DHT22;9788;48.194;16.318;2024-02-14T04:30:08;1.80;99.90
19307;DHT22;9788;48.194;16.318;2024-02-14T04:32:37;1.80;99.90
19307;DHT22;9788;48.194;16.318;2024-02-14T04:35:07;1.80;99.90
19307;DHT22;9788;48.194;16.318;2024-02-14T04:37:35;1.80;99.90
19307;DHT22;9788;48.194;16.318;2024-02-14T04:40:08;1.70;99.90
19307;DHT22;9788;48.194;16.318;2024-02-14T04:42:37;1.70;99.90
19307;DHT22;9788;48.194;16.318;2024-02-14T04:45:06;1.60;99.90
19307;DHT22;9788;48.194;16.318;2024-02-14T04:47:37;1.60;99.90
19307;DHT22;9788;48.194;16.318;2024-02-14T04:50:06;1.60;99.90
19307;DHT22;9788;48.194;16.318;2024-02-14T04:52:34;1.60;99.90
19307;DHT22;9788;48.194;16.318;2024-02-14T04:55:06;1.60;99.90
19307;DHT22;9788;48.194;16.318;2024-02-14T04:57:35;1.60;99.90
19307;DHT22;9788;48.194;16.318;2024-02-14T05:00:05;1.70;99.90
19307;DHT22;9788;48.194;16.318;2024-02-14T05:02:36;1.60;99.90
19307;DHT22;9788;48.194;16.318;2024-02-14T05:05:05;1.60;99.90
19307;DHT22;9788;48.194;16.318;2024-02-14T05:07:38;1.60;99.90
19307;DHT22;9788;48.194;16.318;2024-02-14T05:10:09;1.60;99.90
19307;DHT22;9788;48.194;16.318;2024-02-14T05:12:37;1.60;99.90
19307;DHT22;9788;48.194;16.318;2024-02-14T05:15:08;1.60;99.90
19307;DHT22;9788;48.194;16.318;2024-02-14T05:17:36;1.60;99.90
19307;DHT22;9788;48.194;16.318;2024-02-14T05:20:06;1.50;99.90
19307;DHT22;9788;48.194;16.318;2024-02-14T05:22:38;1.50;99.90
19307;DHT22;9788;48.194;16.318;2024-02-14T05:25:08;1.50;99.90
19307;DHT22;9788;48.194;16.318;2024-02-14T05:27:38;1.50;99.90
19307;DHT22;9788;48.194;16.318;2024-02-14T05:30:07;1.50;99.90
19307;DHT22;9788;48.194;16.318;2024-02-14T05:32:36;1.60;99.90
19307;DHT22;9788;48.194;16.318;2024-02-14T05:35:07;1.60;99.90
19307;DHT22;9788;48.194;16.318;2024-02-14T05:37:38;1.60;99.90
19307;DHT22;9788;48.194;16.318;2024-02-14T05:40:11;1.60;99.90
19307;DHT22;9788;48.194;16.318;2024-02-14T05:42:39;1.60;99.90
19307;DHT22;9788;48.194;16.318;2024-02-14T05:45:10;1.60;99.90
19307;DHT22;9788;48.194;16.318;2024-02-14T05:47:38;1.60;99.90
19307;DHT22;9788;48.194;16.318;2024-02-14T05:50:07;1.60;99.90
19307;DHT22;9788;48.194;16.318;2024-02-14T05:52:38;1.60;99.90
19307;DHT22;9788;48.194;16.318;2024-02-14T05:55:09;1.60;99.90
19307;DHT22;9788;48.194;16.318;2024-02-14T05:57:38;1.70;99.90
19307;DHT22;9788;48.194;16.318;2024-02-14T06:00:10;1.70;99.90
19307;DHT22;9788;48.194;16.318;2024-02-14T06:02:39;1.70;99.90
19307;DHT22;9788;48.194;16.318;2024-02-14T06:05:10;1.70;99.90
19307;DHT22;9788;48.194;16.318;2024-02-14T06:07:39;1.70;99.90
19307;DHT22;9788;48.194;16.318;2024-02-14T06:10:09;1.60;99.90
19307;DHT22;9788;48.194;16.318;2024-02-14T06:12:38;1.60;99.90
19307;DHT22;9788;48.194;16.318;2024-02-14T06:15:08;1.50;99.90
19307;DHT22;9788;48.194;16.318;2024-02-14T06:17:40;1.50;99.90
19307;DHT22;9788;48.194;16.318;2024-02-14T06:20:09;1.50;99.90
19307;DHT22;9788;48.194;16.318;2024-02-14T06:22:40;1.50;99.90
19307;DHT22;9788;48.194;16.318;2024-02-14T06:25:23;1.50;99.90
19307;DHT22;9788;48.194;16.318;2024-02-14T06:27:53;1.50;99.90
19307;DHT22;9788;48.194;16.318;2024-02-14T06:30:22;1.60;99.90
19307;DHT22;9788;48.194;16.318;2024-02-14T06:32:54;1.60;99.90
19307;DHT22;9788;48.194;16.318;2024-02-14T06:35:23;1.80;99.90
19307;DHT22;9788;48.194;16.318;2024-02-14T06:37:52;2.00;99.90
19307;DHT22;9788;48.194;16.318;2024-02-14T06:40:31;2.20;99.90
19307;DHT22;9788;48.194;16.318;2024-02-14T06:43:02;2.30;99.90
19307;DHT22;9788;48.194;16.318;2024-02-14T06:45:33;2.40;99.90
19307;DHT22;9788;48.194;16.318;2024-02-14T06:48:05;2.50;99.90
19307;DHT22;9788;48.194;16.318;2024-02-14T06:50:36;2.60;99.90
19307;DHT22;9788;48.194;16.318;2024-02-14T06:53:06;2.70;99.90
19307;DHT22;9788;48.194;16.318;2024-02-14T06:55:37;2.80;99.90
19307;DHT22;9788;48.194;16.318;2024-02-14T06:58:07;2.80;99.90
19307;DHT22;9788;48.194;16.318;2024-02-14T07:00:36;2.90;99.90
19307;DHT22;9788;48.194;16.318;2024-02-14T07:03:08;3.00;99.90
19307;DHT22;9788;48.194;16.318;2024-02-14T07:05:37;3.10;99.90
19307;DHT22;9788;48.194;16.318;2024-02-14T07:08:07;3.10;99.90
19307;DHT22;9788;48.194;16.318;2024-02-14T07:10:37;3.10;99.90
19307;DHT22;9788;48.194;16.318;2024-02-14T07:13:13;3.20;99.90
19307;DHT22;9788;48.194;16.318;2024-02-14T07:15:42;3.30;99.90
19307;DHT22;9788;48.194;16.318;2024-02-14T07:18:10;3.40;99.90
19307;DHT22;9788;48.194;16.318;2024-02-14T07:20:39;3.50;99.90
19307;DHT22;9788;48.194;16.318;2024-02-14T07:23:08;3.70;99.90
19307;DHT22;9788;48.194;16.318;2024-02-14T07:25:38;3.90;99.90
19307;DHT22;9788;48.194;16.318;2024-02-14T07:28:07;4.10;99.90
19307;DHT22;9788;48.194;16.318;2024-02-14T07:30:35;4.40;99.90
19307;DHT22;9788;48.194;16.318;2024-02-14T07:33:07;4.60;99.90
19307;DHT22;9788;48.194;16.318;2024-02-14T07:35:37;4.80;99.90
19307;DHT22;9788;48.194;16.318;2024-02-14T07:38:10;5.00;99.90
19307;DHT22;9788;48.194;16.318;2024-02-14T07:40:41;5.20;99.90
19307;DHT22;9788;48.194;16.318;2024-02-14T07:43:12;5.30;99.90
19307;DHT22;9788;48.194;16.318;2024-02-14T07:45:41;5.40;99.90
19307;DHT22;9788;48.194;16.318;2024-02-14T07:48:12;5.60;99.90
19307;DHT22;9788;48.194;16.318;2024-02-14T07:50:40;5.50;99.90
19307;DHT22;9788;48.194;16.318;2024-02-14T07:53:09;5.30;99.90
19307;DHT22;9788;48.194;16.318;2024-02-14T07:55:38;5.30;99.90
19307;DHT22;9788;48.194;16.318;2024-02-14T07:58:08;5.40;99.90
19307;DHT22;9788;48.194;16.318;2024-02-14T08:00:37;5.60;99.90
19307;DHT22;9788;48.194;16.318;2024-02-14T08:03:05;5.80;99.90
19307;DHT22;9788;48.194;16.318;2024-02-14T08:05:36;5.90;99.90
19307;DHT22;9788;48.194;16.318;2024-02-14T08:08:11;6.00;99.90
19307;DHT22;9788;48.194;16.318;2024-02-14T08:10:41;6.00;99.90
19307;DHT22;9788;48.194;16.318;2024-02-14T08:13:11;6.20;99.90
19307;DHT22;9788;48.194;16.318;2024-02-14T08:15:43;6.30;99.90
19307;DHT22;9788;48.194;16.318;2024-02-14T08:18:11;6.20;99.90
19307;DHT22;9788;48.194;16.318;2024-02-14T08:20:44;6.10;99.90
19307;DHT22;9788;48.194;16.318;2024-02-14T08:23:13;6.10;99.90
19307;DHT22;9788;48.194;16.318;2024-02-14T08:25:41;6.20;99.90
19307;DHT22;9788;48.194;16.318;2024-02-14T08:28:11;6.20;99.90
19307;DHT22;9788;48.194;16.318;2024-02-14T08:30:39;6.40;99.90
19307;DHT22;9788;48.194;16.318;2024-02-14T08:33:09;6.60;99.90
19307;DHT22;9788;48.194;16.318;2024-02-14T08:35:39;6.70;99.90
19307;DHT22;9788;48.194;16.318;2024-02-14T08:38:10;6.90;99.90
19307;DHT22;9788;48.194;16.318;2024-02-14T08:40:38;6.90;99.90
19307;DHT22;9788;48.194;16.318;2024-02-14T08:43:11;6.80;99.90
19307;DHT22;9788;48.194;16.318;2024-02-14T08:45:39;6.60;99.90
19307;DHT22;9788;48.194;16.318;2024-02-14T08:48:08;6.50;99.90
19307;DHT22;9788;48.194;16.318;2024-02-14T08:50:38;6.50;99.90
19307;DHT22;9788;48.194;16.318;2024-02-14T08:53:06;6.50;99.90
19307;DHT22;9788;48.194;16.318;2024-02-14T08:55:37;6.80;99.90
19307;DHT22;9788;48.194;16.318;2024-02-14T08:58:05;7.80;99.90
19307;DHT22;9788;48.194;16.318;2024-02-14T09:00:38;8.80;99.90
19307;DHT22;9788;48.194;16.318;2024-02-14T09:03:07;9.50;99.90
19307;DHT22;9788;48.194;16.318;2024-02-14T09:05:36;10.40;99.90
19307;DHT22;9788;48.194;16.318;2024-02-14T09:08:06;11.80;99.90
19307;DHT22;9788;48.194;16.318;2024-02-14T09:10:36;13.30;99.90
19307;DHT22;9788;48.194;16.318;2024-02-14T09:13:05;14.40;98.10
19307;DHT22;9788;48.194;16.318;2024-02-14T09:15:34;14.30;97.30
19307;DHT22;9788;48.194;16.318;2024-02-14T09:18:05;14.40;95.60
19307;DHT22;9788;48.194;16.318;2024-02-14T09:20:41;14.10;95.40
19307;DHT22;9788;48.194;16.318;2024-02-14T09:23:13;14.00;95.60
19307;DHT22;9788;48.194;16.318;2024-02-14T09:25:43;14.50;95.60
19307;DHT22;9788;48.194;16.318;2024-02-14T09:28:13;15.40;94.20
19307;DHT22;9788;48.194;16.318;2024-02-14T09:30:46;16.90;92.20
19307;DHT22;9788;48.194;16.318;2024-02-14T09:33:18;17.20;91.30
19307;DHT22;9788;48.194;16.318;2024-02-14T09:35:49;17.90;89.30
19307;DHT22;9788;48.194;16.318;2024-02-14T09:38:26;18.40;87.00
19307;DHT22;9788;48.194;16.318;2024-02-14T09:41:06;18.70;85.70
19307;DHT22;9788;48.194;16.318;2024-02-14T09:43:43;18.80;84.30
19307;DHT22;9788;48.194;16.318;2024-02-14T09:46:13;19.40;83.10
19307;DHT22;9788;48.194;16.318;2024-02-14T09:48:53;19.20;80.90
19307;DHT22;9788;48.194;16.318;2024-02-14T09:51:24;19.40;81.30
19307;DHT22;9788;48.194;16.318;2024-02-14T09:53:54;19.90;80.70
19307;DHT22;9788;48.194;16.318;2024-02-14T09:56:24;20.60;79.00
19307;DHT22;9788;48.194;16.318;2024-02-14T09:58:54;20.90;76.20
19307;DHT22;9788;48.194;16.318;2024-02-14T10:01:24;20.60;76.70
19307;DHT22;9788;48.194;16.318;2024-02-14T10:03:55;20.70;76.30
19307;DHT22;9788;48.194;16.318;2024-02-14T10:06:23;21.00;74.60
19307;DHT22;9788;48.194;16.318;2024-02-14T10:08:53;19.90;75.30
19307;DHT22;9788;48.194;16.318;2024-02-14T10:11:30;19.50;75.80
19307;DHT22;9788;48.194;16.318;2024-02-14T10:14:04;19.40;76.10
19307;DHT22;9788;48.194;16.318;2024-02-14T10:16:36;18.40;76.70
19307;DHT22;9788;48.194;16.318;2024-02-14T10:19:14;17.80;78.20
19307;DHT22;9788;48.194;16.318;2024-02-14T10:21:55;17.90;78.40
19307;DHT22;9788;48.194;16.318;2024-02-14T10:24:26;18.50;78.10
19307;DHT22;9788;48.194;16.318;2024-02-14T10:26:55;18.90;76.90
19307;DHT22;9788;48.194;16.318;2024-02-14T10:29:27;19.00;76.60
19307;DHT22;9788;48.194;16.318;2024-02-14T10:31:57;18.90;76.50
19307;DHT22;9788;48.194;16.318;2024-02-14T10:34:27;19.20;75.60
19307;DHT22;9788;48.194;16.318;2024-02-14T10:36:58;18.70;75.40
19307;DHT22;9788;48.194;16.318;2024-02-14T10:39:29;18.20;75.70
19307;DHT22;9788;48.194;16.318;2024-02-14T10:41:59;18.70;76.00
19307;DHT22;9788;48.194;16.318;2024-02-14T10:44:30;18.70;75.80
19307;DHT22;9788;48.194;16.318;2024-02-14T10:47:00;18.30;76.00
19307;DHT22;9788;48.194;16.318;2024-02-14T10:49:39;17.90;75.90
19307;DHT22;9788;48.194;16.318;2024-02-14T10:52:11;18.40;76.10
19307;DHT22;9788;48.194;16.318;2024-02-14T10:54:39;17.90;75.30
19307;DHT22;9788;48.194;16.318;2024-02-14T10:57:09;17.40;76.70
19307;DHT22;9788;48.194;16.318;2024-02-14T10:59:41;17.60;77.10
19307;DHT22;9788;48.194;16.318;2024-02-14T11:02:10;18.10;77.00
19307;DHT22;9788;48.194;16.318;2024-02-14T11:04:41;17.40;76.10
19307;DHT22;9788;48.194;16.318;2024-02-14T11:07:10;17.10;77.90
19307;DHT22;9788;48.194;16.318;2024-02-14T11:09:41;16.90;78.30
19307;DHT22;9788;48.194;16.318;2024-02-14T11:12:10;17.70;78.50
19307;DHT22;9788;48.194;16.318;2024-02-14T11:14:43;18.40;77.90
19307;DHT22;9788;48.194;16.318;2024-02-14T11:17:14;18.60;76.40
19307;DHT22;9788;48.194;16.318;2024-02-14T11:19:46;18.20;76.70
19307;DHT22;9788;48.194;16.318;2024-02-14T11:22:21;18.60;76.00
19307;DHT22;9788;48.194;16.318;2024-02-14T11:24:50;18.00;77.00
19307;DHT22;9788;48.194;16.318;2024-02-14T11:27:19;17.30;78.40
19307;DHT22;9788;48.194;16.318;2024-02-14T11:30:00;16.20;80.80
19307;DHT22;9788;48.194;16.318;2024-02-14T11:32:32;15.30;82.50
19307;DHT22;9788;48.194;16.318;2024-02-14T11:35:12;15.30;83.30
19307;DHT22;9788;48.194;16.318;2024-02-14T11:37:41;14.80;84.30
19307;DHT22;9788;48.194;16.318;2024-02-14T11:40:11;14.30;85.40
19307;DHT22;9788;48.194;16.318;2024-02-14T11:42:47;14.60;86.10
19307;DHT22;9788;48.194;16.318;2024-02-14T11:45:15;15.50;84.00
19307;DHT22;9788;48.194;16.318;2024-02-14T11:47:44;16.00;82.80
19307;DHT22;9788;48.194;16.318;2024-02-14T11:50:17;16.70;81.50
19307;DHT22;9788;48.194;16.318;2024-02-14T11:52:48;16.90;81.20
19307;DHT22;9788;48.194;16.318;2024-02-14T11:55:18;16.50;81.50
19307;DHT22;9788;48.194;16.318;2024-02-14T11:57:48;17.00;81.70
19307;DHT22;9788;48.194;16.318;2024-02-14T12:00:18;17.50;80.30
19307;DHT22;9788;48.194;16.318;2024-02-14T12:02:47;17.70;79.70
19307;DHT22;9788;48.194;16.318;2024-02-14T12:05:18;17.50;75.60
19307;DHT22;9788;48.194;16.318;2024-02-14T12:07:48;16.80;75.10
19307;DHT22;9788;48.194;16.318;2024-02-14T12:10:17;16.70;75.40
19307;DHT22;9788;48.194;16.318;2024-02-14T12:12:50;16.10;76.60
19307;DHT22;9788;48.194;16.318;2024-02-14T12:15:22;15.80;76.50
19307;DHT22;9788;48.194;16.318;2024-02-14T12:17:52;15.60;76.70
19307;DHT22;9788;48.194;16.318;2024-02-14T12:20:25;15.00;76.80
19307;DHT22;9788;48.194;16.318;2024-02-14T12:22:53;14.60;77.20
19307;DHT22;9788;48.194;16.318;2024-02-14T12:25:22;14.60;77.10
19307;DHT22;9788;48.194;16.318;2024-02-14T12:27:51;14.70;77.10
19307;DHT22;9788;48.194;16.318;2024-02-14T12:30:20;14.70;77.30
19307;DHT22;9788;48.194;16.318;2024-02-14T12:32:58;14.50;76.20
19307;DHT22;9788;48.194;16.318;2024-02-14T12:35:29;14.50;76.80
19307;DHT22;9788;48.194;16.318;2024-02-14T12:37:58;14.70;76.70
19307;DHT22;9788;48.194;16.318;2024-02-14T12:40:26;14.70;77.10
19307;DHT22;9788;48.194;16.318;2024-02-14T12:42:56;14.60;77.10
19307;DHT22;9788;48.194;16.318;2024-02-14T12:45:24;14.60;77.50
19307;DHT22;9788;48.194;16.318;2024-02-14T12:47:54;14.70;77.40
19307;DHT22;9788;48.194;16.318;2024-02-14T12:50:23;14.50;77.70
19307;DHT22;9788;48.194;16.318;2024-02-14T12:52:57;14.70;78.10
19307;DHT22;9788;48.194;16.318;2024-02-14T12:55:26;14.80;78.40
19307;DHT22;9788;48.194;16.318;2024-02-14T12:57:55;15.00;79.20
19307;DHT22;9788;48.194;16.318;2024-02-14T13:00:24;14.90;79.50
19307;DHT22;9788;48.194;16.318;2024-02-14T13:02:54;14.80;80.20
19307;DHT22;9788;48.194;16.318;2024-02-14T13:05:23;14.70;80.70
19307;DHT22;9788;48.194;16.318;2024-02-14T13:07:53;14.60;81.50
19307;DHT22;9788;48.194;16.318;2024-02-14T13:10:23;14.10;82.50
19307;DHT22;9788;48.194;16.318;2024-02-14T13:12:51;14.00;83.20
19307;DHT22;9788;48.194;16.318;2024-02-14T13:15:21;14.10;83.30
19307;DHT22;9788;48.194;16.318;2024-02-14T13:17:50;14.20;83.20
19307;DHT22;9788;48.194;16.318;2024-02-14T13:20:19;14.20;83.20
19307;DHT22;9788;48.194;16.318;2024-02-14T13:22:47;14.20;83.30
19307;DHT22;9788;48.194;16.318;2024-02-14T13:25:16;14.00;83.70
19307;DHT22;9788;48.194;16.318;2024-02-14T13:27:46;13.90;84.00
19307;DHT22;9788;48.194;16.318;2024-02-14T13:30:17;13.50;84.80
19307;DHT22;9788;48.194;16.318;2024-02-14T13:32:46;13.30;85.40
19307;DHT22;9788;48.194;16.318;2024-02-14T13:35:15;13.40;85.50
19307;DHT22;9788;48.194;16.318;2024-02-14T13:37:45;13.50;85.40
19307;DHT22;9788;48.194;16.318;2024-02-14T13:40:16;13.60;85.30
19307;DHT22;9788;48.194;16.318;2024-02-14T13:42:47;13.60;85.20
19307;DHT22;9788;48.194;16.318;2024-02-14T13:45:15;13.80;84.70
19307;DHT22;9788;48.194;16.318;2024-02-14T13:47:44;14.00;84.10
19307;DHT22;9788;48.194;16.318;2024-02-14T13:50:18;13.70;83.90
19307;DHT22;9788;48.194;16.318;2024-02-14T13:52:48;13.50;84.50
19307;DHT22;9788;48.194;16.318;2024-02-14T13:55:18;13.50;85.10
19307;DHT22;9788;48.194;16.318;2024-02-14T13:57:48;13.50;86.00
19307;DHT22;9788;48.194;16.318;2024-02-14T14:00:17;13.30;85.90
19307;DHT22;9788;48.194;16.318;2024-02-14T14:02:46;13.30;86.10
19307;DHT22;9788;48.194;16.318;2024-02-14T14:05:18;13.30;86.20
19307;DHT22;9788;48.194;16.318;2024-02-14T14:07:49;13.30;86.70
19307;DHT22;9788;48.194;16.318;2024-02-14T14:10:26;13.30;86.30
19307;DHT22;9788;48.194;16.318;2024-02-14T14:13:03;13.10;86.30
19307;DHT22;9788;48.194;16.318;2024-02-14T14:15:33;13.10;86.70
19307;DHT22;9788;48.194;16.318;2024-02-14T14:18:02;13.00;86.70
19307;DHT22;9788;48.194;16.318;2024-02-14T14:20:31;13.00;86.90
19307;DHT22;9788;48.194;16.318;2024-02-14T14:23:00;12.90;87.30
19307;DHT22;9788;48.194;16.318;2024-02-14T14:25:32;12.90;87.30
19307;DHT22;9788;48.194;16.318;2024-02-14T14:28:22;12.70;87.50
19307;DHT22;9788;48.194;16.318;2024-02-14T14:30:54;12.60;88.40
19307;DHT22;9788;48.194;16.318;2024-02-14T14:33:23;12.60;88.10
19307;DHT22;9788;48.194;16.318;2024-02-14T14:35:53;12.60;88.40
19307;DHT22;9788;48.194;16.318;2024-02-14T14:38:21;12.50;88.40
19307;DHT22;9788;48.194;16.318;2024-02-14T14:40:52;12.50;88.80
19307;DHT22;9788;48.194;16.318;2024-02-14T14:43:23;12.40;88.50
19307;DHT22;9788;48.194;16.318;2024-02-14T14:45:52;12.40;89.40
19307;DHT22;9788;48.194;16.318;2024-02-14T14:48:20;12.10;89.10
19307;DHT22;9788;48.194;16.318;2024-02-14T14:50:49;12.20;90.20
19307;DHT22;9788;48.194;16.318;2024-02-14T14:53:18;12.20;90.00
19307;DHT22;9788;48.194;16.318;2024-02-14T14:55:52;12.20;89.60
19307;DHT22;9788;48.194;16.318;2024-02-14T14:58:25;12.10;90.00
19307;DHT22;9788;48.194;16.318;2024-02-14T15:01:08;12.00;90.10
19307;DHT22;9788;48.194;16.318;2024-02-14T15:03:37;12.00;90.20
19307;DHT22;9788;48.194;16.318;2024-02-14T15:06:06;11.90;90.20
19307;DHT22;9788;48.194;16.318;2024-02-14T15:08:37;11.80;90.50
19307;DHT22;9788;48.194;16.318;2024-02-14T15:11:08;11.80;90.20
19307;DHT22;9788;48.194;16.318;2024-02-14T15:13:41;11.80;90.40
19307;DHT22;9788;48.194;16.318;2024-02-14T15:16:10;11.80;90.40
19307;DHT22;9788;48.194;16.318;2024-02-14T15:18:40;11.80;90.40
19307;DHT22;9788;48.194;16.318;2024-02-14T15:21:17;11.70;90.40
19307;DHT22;9788;48.194;16.318;2024-02-14T15:23:46;11.70;90.60
19307;DHT22;9788;48.194;16.318;2024-02-14T15:26:16;11.70;90.70
19307;DHT22;9788;48.194;16.318;2024-02-14T15:28:52;11.70;90.60
19307;DHT22;9788;48.194;16.318;2024-02-14T15:31:44;11.60;90.70
19307;DHT22;9788;48.194;16.318;2024-02-14T15:34:29;11.60;90.80
19307;DHT22;9788;48.194;16.318;2024-02-14T15:37:00;11.60;90.80
19307;DHT22;9788;48.194;16.318;2024-02-14T15:39:29;11.50;91.00
19307;DHT22;9788;48.194;16.318;2024-02-14T15:41:59;11.40;90.80
19307;DHT22;9788;48.194;16.318;2024-02-14T15:44:29;11.40;91.00
19307;DHT22;9788;48.194;16.318;2024-02-14T15:46:58;11.30;91.00
19307;DHT22;9788;48.194;16.318;2024-02-14T15:49:28;11.30;91.10
19307;DHT22;9788;48.194;16.318;2024-02-14T15:51:57;11.20;91.20
19307;DHT22;9788;48.194;16.318;2024-02-14T15:54:26;11.20;91.30
19307;DHT22;9788;48.194;16.318;2024-02-14T15:56:55;11.20;91.30
19307;DHT22;9788;48.194;16.318;2024-02-14T15:59:25;11.20;91.30